Time;durP1;ratioP1;P1;durP2;ratioP2;P2;SDS_P1;SDS_P2;PMS_P1;PMS_P2;Temp;Humidity;BMP_temperature;BMP_pressure;BME280_temperature;BME280_humidity;BME280_pressure;Samples;Min_cycle;Max_cycle;Signal;HPM_P1;HPM_P2
2024/01/28 00:02:05;;;;;;;7.63;7.53;;;1.50;99.90;;;;;;5047479;28;20475;-71
2024/01/28 00:04:32;;;;;;;8.20;8.10;;;1.50;99.90;;;;;;5052105;28;20454;-70
2024/01/28 00:06:59;;;;;;;8.13;8.03;;;1.50;99.90;;;;;;5046518;28;20471;-69
2024/01/28 00:09:26;;;;;;;7.37;7.27;;;1.60;99.90;;;;;;5053105;28;20489;-70
2024/01/28 00:11:54;;;;;;;7.50;7.40;;;1.60;99.90;;;;;;5045648;28;20499;-70
2024/01/28 00:14:21;;;;;;;7.70;7.60;;;1.60;99.90;;;;;;5051939;28;20463;-70
2024/01/28 00:16:50;;;;;;;7.97;7.87;;;1.50;99.90;;;;;;5049417;28;20490;-72
2024/01/28 00:19:17;;;;;;;7.27;7.17;;;1.50;99.90;;;;;;5045691;28;21221;-70
2024/01/28 00:21:44;;;;;;;6.97;6.87;;;1.50;99.90;;;;;;5050281;28;20467;-71
2024/01/28 00:24:11;;;;;;;7.27;7.17;;;1.60;99.90;;;;;;5046822;28;20481;-71
2024/01/28 00:26:39;;;;;;;7.30;7.20;;;1.60;99.90;;;;;;5048194;28;20452;-70
2024/01/28 00:29:09;;;;;;;6.77;6.67;;;1.70;99.90;;;;;;5050478;28;20493;-71
2024/01/28 00:31:36;;;;;;;6.23;6.13;;;1.60;99.90;;;;;;5053538;28;20465;-72
2024/01/28 00:34:03;;;;;;;6.70;6.60;;;1.50;99.90;;;;;;5052621;28;20472;-71
2024/01/28 00:36:29;;;;;;;6.80;6.70;;;1.50;99.90;;;;;;5050246;28;20536;-71
2024/01/28 00:38:56;;;;;;;6.70;6.60;;;1.50;99.90;;;;;;5047320;28;20466;-72
2024/01/28 00:41:23;;;;;;;6.90;6.80;;;1.60;99.90;;;;;;5048593;28;20450;-69
2024/01/28 00:43:52;;;;;;;6.77;6.67;;;1.60;99.90;;;;;;5052486;28;20466;-70
2024/01/28 00:46:21;;;;;;;6.70;6.60;;;1.50;99.90;;;;;;5051313;28;20454;-70
2024/01/28 00:48:49;;;;;;;6.70;6.60;;;1.50;99.90;;;;;;5047756;28;20489;-71
2024/01/28 00:51:17;;;;;;;6.67;6.57;;;1.50;99.90;;;;;;5047319;28;21088;-70
2024/01/28 00:53:44;;;;;;;6.93;6.83;;;1.50;99.90;;;;;;5045887;28;20833;-71
2024/01/28 00:56:13;;;;;;;6.70;6.60;;;1.40;99.90;;;;;;5047712;28;20935;-71
2024/01/28 00:58:40;;;;;;;7.00;6.90;;;1.40;99.90;;;;;;5051311;28;20488;-71
2024/01/28 01:01:07;;;;;;;6.80;6.70;;;1.40;99.90;;;;;;5052846;28;20478;-73
2024/01/28 01:03:35;;;;;;;6.67;6.57;;;1.40;99.90;;;;;;5056304;28;20554;-72
2024/01/28 01:06:05;;;;;;;6.80;6.70;;;1.40;99.90;;;;;;5051346;28;20457;-72
2024/01/28 01:08:32;;;;;;;7.30;7.20;;;1.30;99.90;;;;;;5052014;28;20501;-70
2024/01/28 01:11:03;;;;;;;7.20;7.10;;;1.30;99.90;;;;;;5049829;28;20589;-72
2024/01/28 01:13:30;;;;;;;6.97;6.87;;;1.30;99.90;;;;;;5053380;28;20447;-70
2024/01/28 01:15:59;;;;;;;7.20;7.10;;;1.20;99.90;;;;;;5059444;28;20447;-71
2024/01/28 01:18:26;;;;;;;7.30;7.20;;;1.20;99.90;;;;;;5053845;28;20576;-71
2024/01/28 01:20:55;;;;;;;7.07;6.97;;;1.20;99.90;;;;;;5054535;28;20989;-71
2024/01/28 01:23:22;;;;;;;7.23;7.13;;;1.20;99.90;;;;;;5056485;28;20632;-70
2024/01/28 01:25:48;;;;;;;7.40;7.30;;;1.20;99.90;;;;;;5053639;28;20467;-71
2024/01/28 01:28:15;;;;;;;7.37;7.27;;;1.20;99.90;;;;;;5050301;28;20462;-72
2024/01/28 01:30:42;;;;;;;6.80;6.70;;;1.30;99.90;;;;;;5058842;28;20503;-73
2024/01/28 01:33:09;;;;;;;7.50;7.40;;;1.20;99.90;;;;;;5049922;28;20826;-70
2024/01/28 01:35:36;;;;;;;7.17;7.07;;;1.30;99.90;;;;;;5051617;28;20470;-71
2024/01/28 01:38:04;;;;;;;7.50;7.40;;;1.30;99.90;;;;;;5052321;28;20470;-71
2024/01/28 01:40:32;;;;;;;7.57;7.47;;;1.30;99.90;;;;;;5051324;28;20828;-72
2024/01/28 01:42:59;;;;;;;7.83;7.73;;;1.30;99.90;;;;;;5053700;28;20456;-71
2024/01/28 01:45:26;;;;;;;8.13;8.03;;;1.20;99.90;;;;;;5049325;28;20994;-72
2024/01/28 01:47:53;;;;;;;7.60;7.50;;;1.20;99.90;;;;;;5049714;28;20750;-71
2024/01/28 01:50:20;;;;;;;7.67;7.57;;;1.10;99.90;;;;;;5060083;28;20481;-70
2024/01/28 01:52:47;;;;;;;7.17;7.07;;;1.10;99.90;;;;;;5049775;28;20944;-71
2024/01/28 01:55:15;;;;;;;7.90;7.80;;;1.00;99.90;;;;;;5054997;28;20477;-70
2024/01/28 01:57:43;;;;;;;8.10;8.00;;;0.90;99.90;;;;;;5051090;28;20469;-71
2024/01/28 02:00:14;;;;;;;8.00;7.90;;;0.80;99.90;;;;;;5050861;28;20491;-72
2024/01/28 02:02:45;;;;;;;8.30;8.20;;;0.80;99.90;;;;;;5052114;28;20467;-71
2024/01/28 02:05:12;;;;;;;7.80;7.70;;;0.80;99.90;;;;;;5046443;28;20559;-70
2024/01/28 02:07:40;;;;;;;8.40;8.30;;;0.90;99.90;;;;;;5049884;28;20496;-71
2024/01/28 02:10:09;;;;;;;8.07;7.97;;;0.90;99.90;;;;;;5054144;28;20493;-70
2024/01/28 02:12:38;;;;;;;7.93;7.83;;;0.80;99.90;;;;;;5057578;28;20507;-72
2024/01/28 02:15:05;;;;;;;7.93;7.83;;;0.90;99.90;;;;;;5056697;28;20453;-72
2024/01/28 02:17:33;;;;;;;7.63;7.53;;;0.80;99.90;;;;;;5051772;28;20480;-71
2024/01/28 02:20:00;;;;;;;8.13;8.03;;;0.90;99.90;;;;;;5054300;28;20473;-71
2024/01/28 02:22:26;;;;;;;8.43;8.33;;;0.80;99.90;;;;;;5049951;28;20471;-71
2024/01/28 02:24:54;;;;;;;7.83;7.73;;;0.80;99.90;;;;;;5048616;28;21239;-72
2024/01/28 02:27:22;;;;;;;8.10;8.00;;;0.80;99.90;;;;;;5050387;28;20451;-71
2024/01/28 02:29:48;;;;;;;7.83;7.73;;;0.80;99.90;;;;;;5048692;28;20510;-71
2024/01/28 02:32:17;;;;;;;7.83;7.73;;;0.90;99.90;;;;;;5054232;28;20903;-69
2024/01/28 02:34:44;;;;;;;8.03;7.93;;;0.80;99.90;;;;;;5055415;28;20454;-69
2024/01/28 02:37:11;;;;;;;8.50;8.40;;;0.80;99.90;;;;;;5052212;28;20464;-69
2024/01/28 02:39:38;;;;;;;8.43;8.33;;;0.80;99.90;;;;;;5055254;28;21122;-69
2024/01/28 02:42:07;;;;;;;8.10;8.00;;;0.80;99.90;;;;;;5054828;28;20462;-73
2024/01/28 02:44:34;;;;;;;7.70;7.60;;;0.70;99.90;;;;;;5054663;28;20453;-71
2024/01/28 02:47:02;;;;;;;9.13;8.93;;;0.80;99.90;;;;;;5054552;28;20465;-70
2024/01/28 02:49:29;;;;;;;8.97;8.77;;;0.70;99.90;;;;;;5051492;28;21016;-71
2024/01/28 02:51:56;;;;;;;8.57;8.47;;;0.80;99.90;;;;;;5047812;28;20502;-70
2024/01/28 02:54:23;;;;;;;8.53;8.43;;;0.80;99.90;;;;;;5051120;28;20480;-71
2024/01/28 02:56:51;;;;;;;9.20;9.00;;;0.80;99.90;;;;;;5051276;28;20933;-71
2024/01/28 02:59:20;;;;;;;8.97;8.77;;;0.80;99.90;;;;;;5051998;28;20490;-70
2024/01/28 03:01:47;;;;;;;8.60;8.50;;;0.80;99.90;;;;;;5052695;28;20506;-70
2024/01/28 03:04:14;;;;;;;8.53;8.43;;;0.80;99.90;;;;;;5059662;28;20819;-70
2024/01/28 03:06:41;;;;;;;8.70;8.60;;;0.80;99.90;;;;;;5050017;28;20956;-71
2024/01/28 03:09:07;;;;;;;9.00;8.80;;;0.80;99.90;;;;;;5056249;28;20499;-71
2024/01/28 03:11:34;;;;;;;9.20;9.00;;;0.80;99.90;;;;;;5053333;28;20505;-70
2024/01/28 03:14:01;;;;;;;8.90;8.70;;;0.90;99.90;;;;;;5054571;28;20454;-71
2024/01/28 03:16:30;;;;;;;9.53;9.33;;;0.80;99.90;;;;;;5056889;28;20466;-72
2024/01/28 03:18:56;;;;;;;9.00;8.80;;;0.80;99.90;;;;;;5056820;28;20468;-72
2024/01/28 03:21:23;;;;;;;9.10;8.90;;;0.80;99.90;;;;;;5046477;28;20920;-70
2024/01/28 03:23:50;;;;;;;8.77;8.67;;;0.80;99.90;;;;;;5052553;28;20472;-70
2024/01/28 03:26:19;;;;;;;9.30;9.10;;;0.70;99.90;;;;;;5054968;28;20465;-72
2024/01/28 03:28:46;;;;;;;9.10;8.90;;;0.70;99.90;;;;;;5054061;28;20495;-71
2024/01/28 03:31:13;;;;;;;8.70;8.60;;;0.70;99.90;;;;;;5053968;28;20591;-70
2024/01/28 03:33:41;;;;;;;9.40;9.20;;;0.70;99.90;;;;;;5049234;28;20461;-72
2024/01/28 03:36:08;;;;;;;8.63;8.53;;;0.70;99.90;;;;;;5047857;28;20479;-71
2024/01/28 03:38:35;;;;;;;8.87;8.70;;;0.60;99.90;;;;;;5060559;28;20471;-72
2024/01/28 03:41:02;;;;;;;8.87;8.70;;;0.60;99.90;;;;;;5053287;28;20957;-72
2024/01/28 03:43:29;;;;;;;8.77;8.67;;;0.60;99.90;;;;;;5050667;28;20964;-71
2024/01/28 03:45:56;;;;;;;9.13;8.93;;;0.60;99.90;;;;;;5055415;28;20839;-71
2024/01/28 03:48:23;;;;;;;8.43;8.33;;;0.60;99.90;;;;;;5049794;28;20476;-72
2024/01/28 03:50:52;;;;;;;8.83;8.70;;;0.70;99.90;;;;;;5049989;28;20492;-71
2024/01/28 03:53:18;;;;;;;8.60;8.50;;;0.70;99.90;;;;;;5049655;28;20476;-71
2024/01/28 03:55:46;;;;;;;8.67;8.57;;;0.70;99.90;;;;;;5050314;28;20503;-71
2024/01/28 03:58:13;;;;;;;8.43;8.33;;;0.80;99.90;;;;;;5051644;28;20553;-70
2024/01/28 04:00:40;;;;;;;8.90;8.70;;;0.80;99.90;;;;;;5050926;28;20802;-72
2024/01/28 04:03:07;;;;;;;8.00;7.90;;;0.80;99.90;;;;;;5045911;28;20469;-72
2024/01/28 04:05:33;;;;;;;7.73;7.63;;;0.80;99.90;;;;;;5049182;28;20468;-70
2024/01/28 04:08:02;;;;;;;7.03;6.93;;;0.80;99.90;;;;;;5055487;28;20471;-71
2024/01/28 04:10:29;;;;;;;7.33;7.23;;;0.70;99.90;;;;;;5059396;28;20715;-72
2024/01/28 04:12:56;;;;;;;7.00;6.90;;;0.80;99.90;;;;;;5053952;28;20467;-71
2024/01/28 04:15:23;;;;;;;7.20;7.10;;;0.70;99.90;;;;;;5057884;28;20478;-72
2024/01/28 04:17:50;;;;;;;7.70;7.60;;;0.70;99.90;;;;;;5050652;28;20467;-73
2024/01/28 04:20:18;;;;;;;7.57;7.47;;;0.70;99.90;;;;;;5054619;28;20457;-71
2024/01/28 04:22:44;;;;;;;7.03;6.93;;;0.70;99.90;;;;;;5050561;28;20453;-71
2024/01/28 04:25:14;;;;;;;7.40;7.30;;;0.60;99.90;;;;;;5053464;28;20456;-72
2024/01/28 04:27:41;;;;;;;7.00;6.90;;;0.60;99.90;;;;;;5052326;28;20551;-71
2024/01/28 04:30:10;;;;;;;7.40;7.30;;;0.60;99.90;;;;;;5049188;28;20996;-70
2024/01/28 04:32:37;;;;;;;7.80;7.70;;;0.60;99.90;;;;;;5048501;28;20459;-70
2024/01/28 04:35:04;;;;;;;7.80;7.70;;;0.60;99.90;;;;;;5056010;28;20653;-72
2024/01/28 04:37:32;;;;;;;7.77;7.67;;;0.70;99.90;;;;;;5056331;28;20678;-72
2024/01/28 04:39:58;;;;;;;7.60;7.50;;;0.70;99.90;;;;;;5054210;28;20463;-72
2024/01/28 04:42:27;;;;;;;7.47;7.37;;;0.70;99.90;;;;;;5058687;28;20467;-71
2024/01/28 04:44:53;;;;;;;7.63;7.53;;;0.60;99.90;;;;;;5052544;28;20461;-72
2024/01/28 04:47:21;;;;;;;7.60;7.50;;;0.60;99.90;;;;;;5051895;28;20462;-71
2024/01/28 04:49:47;;;;;;;6.93;6.83;;;0.60;99.90;;;;;;5061774;28;20457;-71
2024/01/28 04:52:14;;;;;;;7.80;7.70;;;0.70;99.90;;;;;;5055459;28;20539;-72
2024/01/28 04:54:41;;;;;;;7.33;7.23;;;0.60;99.90;;;;;;5056082;28;20481;-72
2024/01/28 04:57:08;;;;;;;7.60;7.50;;;0.60;99.90;;;;;;5057573;28;20463;-71
2024/01/28 04:59:36;;;;;;;7.53;7.43;;;0.60;99.90;;;;;;5050356;28;21367;-72
2024/01/28 05:02:05;;;;;;;6.60;6.50;;;0.60;99.90;;;;;;5055756;28;20571;-71
2024/01/28 05:04:32;;;;;;;7.60;7.50;;;0.60;99.90;;;;;;5048791;28;20571;-72
2024/01/28 05:06:59;;;;;;;7.40;7.30;;;0.50;99.90;;;;;;5060363;28;20946;-72
2024/01/28 05:09:26;;;;;;;7.50;7.40;;;0.50;99.90;;;;;;5066229;28;20465;-72
2024/01/28 05:11:53;;;;;;;7.80;7.70;;;0.60;99.90;;;;;;5056871;28;20529;-71
2024/01/28 05:14:21;;;;;;;7.10;7.00;;;0.50;99.90;;;;;;5051436;28;20469;-71
2024/01/28 05:16:49;;;;;;;7.53;7.43;;;0.50;99.90;;;;;;5060815;28;20476;-71
2024/01/28 05:19:17;;;;;;;7.80;7.70;;;0.60;99.90;;;;;;5050295;28;20469;-72
2024/01/28 05:21:43;;;;;;;7.20;7.10;;;0.60;99.90;;;;;;5052306;28;20458;-73
2024/01/28 05:24:11;;;;;;;8.00;7.90;;;0.60;99.90;;;;;;5057695;28;20465;-72
2024/01/28 05:26:38;;;;;;;7.90;7.80;;;0.50;99.90;;;;;;5056243;28;20462;-71
2024/01/28 05:29:05;;;;;;;7.80;7.70;;;0.50;99.90;;;;;;5046293;28;20592;-72
2024/01/28 05:31:33;;;;;;;8.30;8.20;;;0.50;99.90;;;;;;5053275;28;20498;-72
2024/01/28 05:34:02;;;;;;;7.93;7.83;;;0.50;99.90;;;;;;5057686;28;20510;-71
2024/01/28 05:36:30;;;;;;;8.27;8.17;;;0.50;99.90;;;;;;5047166;28;20483;-72
2024/01/28 05:38:57;;;;;;;8.10;8.00;;;0.60;99.90;;;;;;5056610;28;20472;-72
2024/01/28 05:41:24;;;;;;;8.50;8.40;;;0.60;99.90;;;;;;5052578;28;21021;-72
2024/01/28 05:43:51;;;;;;;7.97;7.87;;;0.60;99.90;;;;;;5055223;28;20555;-72
2024/01/28 05:46:18;;;;;;;7.90;7.80;;;0.60;99.90;;;;;;5054737;28;20456;-71
2024/01/28 05:48:44;;;;;;;8.50;8.40;;;0.70;99.90;;;;;;5050120;28;20884;-71
2024/01/28 05:51:13;;;;;;;8.27;8.17;;;0.60;99.90;;;;;;5049708;28;20483;-72
2024/01/28 05:53:40;;;;;;;7.83;7.73;;;0.60;99.90;;;;;;5055421;28;20512;-72
2024/01/28 05:56:07;;;;;;;8.03;7.93;;;0.70;99.90;;;;;;5053718;28;20459;-71
2024/01/28 05:58:34;;;;;;;8.20;8.10;;;0.60;99.90;;;;;;5055153;28;21026;-72
2024/01/28 06:01:06;;;;;;;7.87;7.77;;;0.60;99.90;;;;;;5056030;28;20503;-71
2024/01/28 06:03:33;;;;;;;7.63;7.53;;;0.60;99.90;;;;;;5055853;28;20495;-72
2024/01/28 06:06:00;;;;;;;8.20;8.10;;;0.60;99.90;;;;;;5056901;28;20465;-71
2024/01/28 06:08:29;;;;;;;7.70;7.60;;;0.70;99.90;;;;;;5049051;28;20555;-72
2024/01/28 06:10:56;;;;;;;8.10;8.00;;;0.70;99.90;;;;;;5052591;28;21123;-71
2024/01/28 06:13:23;;;;;;;8.40;8.30;;;0.70;99.90;;;;;;5058344;28;21051;-71
2024/01/28 06:15:51;;;;;;;8.43;8.33;;;0.70;99.90;;;;;;5060051;28;20456;-72
2024/01/28 06:18:19;;;;;;;7.83;7.73;;;0.80;99.90;;;;;;5053040;28;20470;-71
2024/01/28 06:20:46;;;;;;;8.60;8.50;;;0.80;99.90;;;;;;5056795;28;20477;-71
2024/01/28 06:23:13;;;;;;;8.60;8.50;;;0.80;99.90;;;;;;5051941;28;20865;-72
2024/01/28 06:25:41;;;;;;;8.57;8.47;;;0.70;99.90;;;;;;5046305;28;20456;-71
2024/01/28 06:28:08;;;;;;;8.90;8.80;;;0.60;99.90;;;;;;5054285;28;20464;-72
2024/01/28 06:30:35;;;;;;;8.30;8.20;;;0.70;99.90;;;;;;5055265;28;20509;-71
2024/01/28 06:33:02;;;;;;;8.93;8.73;;;0.80;99.90;;;;;;5051621;28;20495;-72
2024/01/28 06:35:29;;;;;;;8.90;8.70;;;0.80;99.90;;;;;;5064498;28;20522;-71
2024/01/28 06:37:56;;;;;;;9.30;9.10;;;0.80;99.90;;;;;;5049918;28;20494;-72
2024/01/28 06:40:23;;;;;;;8.83;8.67;;;0.80;99.90;;;;;;5049977;28;20470;-72
2024/01/28 06:42:52;;;;;;;9.00;8.80;;;0.70;99.90;;;;;;5047975;28;20606;-71
2024/01/28 06:45:19;;;;;;;8.67;8.57;;;0.70;99.90;;;;;;5055666;28;20845;-70
2024/01/28 06:47:46;;;;;;;8.67;8.57;;;0.70;99.90;;;;;;5057911;28;20526;-71
2024/01/28 06:50:13;;;;;;;8.67;8.57;;;0.70;99.90;;;;;;5049988;28;20561;-70
2024/01/28 06:52:39;;;;;;;8.67;8.57;;;0.70;99.90;;;;;;5058151;28;20824;-71
2024/01/28 06:55:07;;;;;;;9.03;8.83;;;0.70;99.90;;;;;;5051948;28;20468;-72
2024/01/28 06:57:33;;;;;;;8.90;8.73;;;0.70;99.90;;;;;;5048995;28;20876;-72
2024/01/28 07:00:04;;;;;;;8.73;8.63;;;0.70;99.90;;;;;;5049869;28;20479;-73
2024/01/28 07:02:31;;;;;;;8.77;8.67;;;0.60;99.90;;;;;;5048558;28;20471;-73
2024/01/28 07:04:59;;;;;;;9.20;9.00;;;0.70;99.90;;;;;;5053965;28;20498;-72
2024/01/28 07:07:26;;;;;;;9.23;9.03;;;0.70;99.90;;;;;;5053973;28;20457;-72
2024/01/28 07:09:52;;;;;;;8.50;8.40;;;0.70;99.90;;;;;;5056034;28;20564;-72
2024/01/28 07:12:19;;;;;;;8.20;8.10;;;0.70;99.90;;;;;;5049243;28;20585;-71
2024/01/28 07:14:45;;;;;;;8.93;8.73;;;0.60;99.90;;;;;;5054174;28;20830;-72
2024/01/28 07:17:14;;;;;;;9.00;8.80;;;0.60;99.90;;;;;;5048569;28;20520;-72
2024/01/28 07:19:42;;;;;;;9.10;8.90;;;0.60;99.90;;;;;;5056694;28;20456;-72
2024/01/28 07:22:11;;;;;;;9.17;8.97;;;0.60;99.90;;;;;;5049599;28;20465;-72
2024/01/28 07:24:39;;;;;;;9.70;9.50;;;0.60;99.90;;;;;;5056881;28;20825;-71
2024/01/28 07:27:06;;;;;;;9.80;9.60;;;0.70;99.90;;;;;;5046691;28;20494;-72
2024/01/28 07:29:35;;;;;;;9.10;8.90;;;0.60;99.90;;;;;;5044623;28;21028;-72
2024/01/28 07:32:02;;;;;;;9.07;8.87;;;0.60;99.90;;;;;;5051526;28;21028;-72
2024/01/28 07:34:30;;;;;;;9.40;9.20;;;0.60;99.90;;;;;;5058850;28;20814;-71
2024/01/28 07:36:58;;;;;;;9.07;8.87;;;0.70;99.90;;;;;;5053610;28;20951;-72
2024/01/28 07:39:27;;;;;;;8.90;8.73;;;0.60;99.90;;;;;;5048119;28;20500;-72
2024/01/28 07:41:54;;;;;;;9.30;9.10;;;0.60;99.90;;;;;;5056934;28;20474;-72
2024/01/28 07:44:23;;;;;;;9.97;9.77;;;0.70;99.90;;;;;;5044360;28;20675;-72
2024/01/28 07:46:53;;;;;;;9.70;9.50;;;0.70;99.90;;;;;;5046854;28;20472;-72
2024/01/28 07:49:20;;;;;;;9.27;9.07;;;0.70;99.90;;;;;;5051034;28;20452;-72
2024/01/28 07:51:48;;;;;;;9.70;9.50;;;0.70;99.90;;;;;;5049289;28;20477;-72
2024/01/28 07:54:15;;;;;;;9.00;8.80;;;0.70;99.90;;;;;;5053000;28;20530;-71
2024/01/28 07:56:45;;;;;;;9.27;9.07;;;0.80;99.90;;;;;;5054801;28;20458;-71
2024/01/28 07:59:14;;;;;;;9.40;9.20;;;0.80;99.90;;;;;;5044417;28;20600;-72
2024/01/28 08:01:40;;;;;;;9.17;8.97;;;0.90;99.90;;;;;;5053682;28;20834;-72
2024/01/28 08:04:10;;;;;;;9.40;9.20;;;0.90;99.90;;;;;;5050116;28;20455;-72
2024/01/28 08:06:37;;;;;;;9.23;9.03;;;1.00;99.90;;;;;;5049887;28;20553;-71
2024/01/28 08:09:05;;;;;;;9.70;9.50;;;1.00;99.90;;;;;;5049382;28;20472;-71
2024/01/28 08:11:35;;;;;;;9.97;9.77;;;1.10;99.90;;;;;;5048677;28;20467;-72
2024/01/28 08:14:06;;;;;;;9.33;9.13;;;1.20;99.90;;;;;;5055782;28;20461;-73
2024/01/28 08:16:34;;;;;;;9.70;9.50;;;1.20;99.90;;;;;;5050064;28;21014;-72
2024/01/28 08:19:04;;;;;;;9.20;9.00;;;1.20;99.90;;;;;;5045475;28;20460;-72
2024/01/28 08:21:32;;;;;;;9.83;9.63;;;1.20;99.90;;;;;;5053828;28;20486;-72
2024/01/28 08:23:58;;;;;;;9.17;8.97;;;1.30;99.90;;;;;;5054927;28;20842;-72
2024/01/28 08:26:26;;;;;;;9.83;9.63;;;1.30;99.90;;;;;;5052579;28;20834;-71
2024/01/28 08:28:54;;;;;;;10.00;9.80;;;1.30;99.90;;;;;;5053559;28;20469;-72
2024/01/28 08:31:24;;;;;;;10.47;10.27;;;1.30;99.90;;;;;;5051377;28;21255;-70
2024/01/28 08:33:52;;;;;;;10.97;10.67;;;1.40;99.90;;;;;;5047925;28;20465;-71
2024/01/28 08:36:19;;;;;;;10.97;10.67;;;1.50;99.90;;;;;;5048838;28;20937;-71
2024/01/28 08:38:46;;;;;;;10.67;10.37;;;1.60;99.90;;;;;;5057479;28;20477;-71
2024/01/28 08:41:13;;;;;;;11.10;10.80;;;1.60;99.90;;;;;;5051188;28;20463;-71
2024/01/28 08:43:43;;;;;;;11.20;10.90;;;1.70;99.90;;;;;;5053356;28;20473;-71
2024/01/28 08:46:10;;;;;;;11.30;11.00;;;1.80;99.90;;;;;;5047816;28;20553;-71
2024/01/28 08:51:18;;;;;;;11.27;10.97;;;2.00;99.90;;;;;;5046876;28;20463;-71
2024/01/28 08:53:45;;;;;;;11.10;10.80;;;2.00;99.90;;;;;;5050595;28;20537;-70
2024/01/28 08:56:12;;;;;;;11.17;10.87;;;2.00;99.90;;;;;;5055703;28;20449;-69
2024/01/28 08:58:38;;;;;;;11.03;10.73;;;2.00;99.90;;;;;;5050654;28;20539;-71
2024/01/28 09:01:08;;;;;;;11.20;10.90;;;2.10;99.90;;;;;;5048875;28;20467;-70
2024/01/28 09:03:34;;;;;;;10.90;10.60;;;2.20;99.90;;;;;;5050688;28;20470;-70
2024/01/28 09:06:02;;;;;;;11.10;10.80;;;2.20;99.90;;;;;;5053019;28;21250;-70
2024/01/28 09:08:30;;;;;;;10.80;10.50;;;2.20;99.90;;;;;;5045562;28;20466;-72
2024/01/28 09:10:57;;;;;;;10.77;10.47;;;2.30;99.90;;;;;;5050867;28;20476;-71
2024/01/28 09:13:24;;;;;;;10.37;10.17;;;2.30;99.90;;;;;;5047483;28;20507;-73
2024/01/28 09:15:51;;;;;;;11.00;10.70;;;2.40;99.90;;;;;;5054628;28;20486;-72
2024/01/28 09:18:19;;;;;;;11.07;10.77;;;2.40;99.90;;;;;;5057281;28;20456;-72
2024/01/28 09:20:46;;;;;;;11.27;10.97;;;2.50;99.90;;;;;;5051854;28;20468;-71
2024/01/28 09:25:54;;;;;;;11.87;11.57;;;2.70;99.90;;;;;;5059322;28;20630;-70
2024/01/28 09:28:21;;;;;;;12.07;11.77;;;2.80;99.90;;;;;;5057143;28;20506;-71
2024/01/28 09:30:48;;;;;;;11.70;11.40;;;2.90;99.90;;;;;;5059115;28;20474;-72
2024/01/28 09:33:14;;;;;;;12.10;11.80;;;2.90;99.90;;;;;;5052048;28;20521;-71
2024/01/28 09:35:46;;;;;;;12.57;12.17;;;3.00;99.90;;;;;;5058980;28;20486;-71
2024/01/28 09:38:13;;;;;;;12.60;12.20;;;3.10;99.90;;;;;;5054769;28;20251;-70
2024/01/28 09:40:40;;;;;;;12.33;11.93;;;3.10;99.90;;;;;;5047904;28;20456;-71
2024/01/28 09:43:21;;;;;;;12.50;12.10;;;3.10;99.90;;;;;;5050203;28;20461;-70
2024/01/28 09:45:49;;;;;;;11.97;11.67;;;3.10;99.90;;;;;;5055008;28;20468;-71
2024/01/28 09:48:17;;;;;;;12.10;11.80;;;3.20;99.90;;;;;;5061540;28;20946;-71
2024/01/28 09:50:45;;;;;;;11.90;11.60;;;3.40;99.90;;;;;;5041353;28;20474;-71
2024/01/28 09:53:13;;;;;;;11.40;11.10;;;3.40;99.90;;;;;;5052863;28;20497;-69
2024/01/28 09:55:40;;;;;;;12.20;11.90;;;3.40;99.90;;;;;;5052492;28;20463;-70
2024/01/28 09:58:06;;;;;;;11.87;11.57;;;3.40;99.90;;;;;;5053104;28;20522;-71
2024/01/28 10:00:33;;;;;;;12.00;11.70;;;3.50;99.90;;;;;;5049107;28;20480;-69
2024/01/28 10:03:00;;;;;;;11.80;11.50;;;3.60;99.90;;;;;;5051405;28;20984;-69
2024/01/28 10:05:27;;;;;;;11.90;11.60;;;3.70;99.90;;;;;;5051071;28;20464;-70
2024/01/28 10:08:02;;;;;;;12.23;11.93;;;3.70;99.90;;;;;;5052726;28;20467;-70
2024/01/28 10:10:29;;;;;;;13.10;12.70;;;3.70;99.90;;;;;;5047121;28;20499;-69
2024/01/28 10:12:57;;;;;;;12.67;12.27;;;4.00;99.90;;;;;;5046855;28;20534;-70
2024/01/28 10:15:27;;;;;;;12.60;12.20;;;4.20;99.90;;;;;;5054028;28;20470;-70
2024/01/28 10:17:57;;;;;;;12.80;12.40;;;4.20;99.90;;;;;;5045936;28;20567;-70
2024/01/28 10:20:28;;;;;;;12.30;12.00;;;4.20;99.90;;;;;;5049219;28;20464;-69
2024/01/28 10:22:57;;;;;;;12.73;12.33;;;4.30;99.90;;;;;;5046947;28;22148;-71
2024/01/28 10:25:29;;;;;;;13.27;12.87;;;4.40;99.90;;;;;;5052131;28;20552;-70
2024/01/28 10:27:56;;;;;;;13.37;12.97;;;4.50;99.90;;;;;;5048513;28;20471;-70
2024/01/28 10:30:25;;;;;;;13.53;13.13;;;4.60;99.90;;;;;;5051073;28;20974;-70
2024/01/28 10:32:56;;;;;;;13.17;12.77;;;4.70;99.90;;;;;;5045931;28;20495;-71
2024/01/28 10:35:26;;;;;;;13.73;13.33;;;4.80;99.90;;;;;;5046891;28;20993;-69
2024/01/28 10:37:59;;;;;;;14.37;13.87;;;4.90;99.90;;;;;;5043669;28;20465;-72
2024/01/28 10:40:32;;;;;;;14.23;13.73;;;5.00;99.90;;;;;;5049197;28;20468;-70
2024/01/28 10:43:02;;;;;;;14.30;13.80;;;5.20;99.90;;;;;;5045095;28;20483;-71
2024/01/28 10:45:30;;;;;;;13.50;13.10;;;5.30;99.90;;;;;;5048626;28;20800;-70
2024/01/28 10:48:06;;;;;;;13.40;13.00;;;5.40;99.90;;;;;;5045307;28;20483;-71
2024/01/28 10:50:34;;;;;;;13.77;13.37;;;5.50;99.90;;;;;;5049754;28;20467;-71
2024/01/28 10:53:05;;;;;;;14.03;13.60;;;5.60;99.90;;;;;;5047086;28;20589;-71
2024/01/28 10:55:34;;;;;;;13.63;13.23;;;5.70;99.90;;;;;;5049363;28;20554;-72
2024/01/28 10:58:03;;;;;;;13.43;13.03;;;5.70;99.90;;;;;;5039236;28;21009;-71
2024/01/28 11:00:31;;;;;;;14.23;13.73;;;5.90;99.90;;;;;;5040637;28;20575;-69
2024/01/28 11:03:00;;;;;;;13.70;13.30;;;6.00;99.90;;;;;;5036056;28;20467;-71
2024/01/28 11:05:27;;;;;;;14.30;13.80;;;6.20;99.90;;;;;;5038957;28;20480;-72
2024/01/28 11:07:59;;;;;;;13.80;13.40;;;6.70;99.90;;;;;;5044636;28;20477;-71
2024/01/28 11:10:29;;;;;;;14.30;13.80;;;7.30;99.90;;;;;;5037723;28;20530;-72
2024/01/28 11:12:58;;;;;;;13.63;13.23;;;8.00;99.90;;;;;;5038094;28;20571;-71
2024/01/28 11:15:27;;;;;;;14.33;13.83;;;8.60;99.90;;;;;;5041317;28;20530;-72
2024/01/28 11:18:00;;;;;;;13.53;13.13;;;9.40;99.90;;;;;;5042711;28;20765;-72
2024/01/28 11:20:28;;;;;;;12.70;12.40;;;9.80;99.90;;;;;;5038747;28;20468;-71
2024/01/28 11:22:59;;;;;;;13.80;13.40;;;9.90;99.90;;;;;;5037448;28;21046;-70
2024/01/28 11:25:28;;;;;;;12.87;12.47;;;10.30;99.90;;;;;;5039492;28;20580;-72
2024/01/28 11:28:01;;;;;;;13.03;12.63;;;10.70;99.90;;;;;;5040897;28;20479;-70
2024/01/28 11:30:31;;;;;;;13.23;12.83;;;10.90;99.90;;;;;;5038300;28;20496;-71
2024/01/28 11:33:09;;;;;;;13.40;13.00;;;11.30;99.90;;;;;;5037044;28;20493;-70
2024/01/28 11:35:36;;;;;;;13.33;12.93;;;11.10;99.90;;;;;;5039763;28;20510;-71
2024/01/28 11:38:06;;;;;;;13.40;13.00;;;11.60;99.90;;;;;;5039894;28;21102;-69
2024/01/28 11:40:36;;;;;;;14.00;13.53;;;11.70;99.90;;;;;;5036423;28;20567;-70
2024/01/28 11:43:09;;;;;;;13.80;13.33;;;12.00;99.90;;;;;;5037654;28;20793;-70
2024/01/28 11:45:39;;;;;;;13.83;13.43;;;12.20;99.90;;;;;;5037456;28;20626;-72
2024/01/28 11:48:12;;;;;;;13.70;13.23;;;12.50;99.90;;;;;;5037633;28;20627;-72
2024/01/28 11:50:40;;;;;;;14.17;13.67;;;12.70;99.90;;;;;;5038006;28;20500;-72
2024/01/28 11:53:09;;;;;;;13.77;13.37;;;12.60;99.90;;;;;;5035985;28;21595;-72
2024/01/28 11:55:36;;;;;;;14.63;14.13;;;12.70;99.90;;;;;;5040716;28;20624;-73
2024/01/28 11:58:03;;;;;;;13.70;13.30;;;13.00;99.90;;;;;;5040706;28;20496;-71
2024/01/28 12:00:36;;;;;;;15.00;14.50;;;12.80;99.90;;;;;;5035046;28;20476;-71
2024/01/28 12:03:03;;;;;;;14.30;13.80;;;12.60;99.90;;;;;;5038936;28;20483;-71
2024/01/28 12:05:31;;;;;;;14.37;13.87;;;12.70;99.90;;;;;;5038535;28;20514;-71
2024/01/28 12:07:59;;;;;;;14.97;14.47;;;12.70;99.90;;;;;;5037179;28;20564;-72
2024/01/28 12:10:29;;;;;;;13.90;13.50;;;12.90;99.90;;;;;;5038272;28;20515;-72
2024/01/28 12:12:58;;;;;;;14.43;13.93;;;13.40;99.90;;;;;;5034917;28;21459;-71
2024/01/28 12:15:26;;;;;;;13.93;13.43;;;13.60;99.90;;;;;;5034439;28;20483;-72
2024/01/28 12:17:54;;;;;;;14.20;13.70;;;13.90;99.90;;;;;;5034865;28;20491;-71
2024/01/28 12:20:22;;;;;;;14.57;14.07;;;14.30;99.90;;;;;;5037757;28;20497;-71
2024/01/28 12:22:49;;;;;;;14.80;14.30;;;14.20;99.90;;;;;;5041973;28;20493;-73
2024/01/28 12:25:22;;;;;;;14.43;13.93;;;14.50;99.90;;;;;;5043822;28;20475;-72
2024/01/28 12:27:50;;;;;;;14.60;14.10;;;14.40;99.90;;;;;;5042256;28;20902;-72
2024/01/28 12:30:18;;;;;;;14.70;14.20;;;14.40;99.90;;;;;;5042401;28;20473;-71
2024/01/28 12:32:45;;;;;;;13.77;13.37;;;14.70;99.90;;;;;;5044171;28;20509;-72
2024/01/28 12:35:14;;;;;;;14.27;13.77;;;14.70;99.90;;;;;;5043705;28;20797;-72
2024/01/28 12:37:41;;;;;;;13.93;13.53;;;14.90;99.90;;;;;;5049266;28;20476;-71
2024/01/28 12:40:09;;;;;;;15.57;14.97;;;14.80;99.90;;;;;;5053927;28;20496;-73
2024/01/28 12:42:39;;;;;;;14.80;14.30;;;14.60;99.90;;;;;;5045540;28;20464;-71
2024/01/28 12:45:07;;;;;;;15.20;14.70;;;14.50;99.90;;;;;;5043025;28;20471;-73
2024/01/28 12:47:36;;;;;;;14.50;14.00;;;14.50;99.90;;;;;;5048178;28;20466;-72
2024/01/28 12:50:05;;;;;;;15.03;14.53;;;14.50;99.90;;;;;;5053506;28;20487;-72
2024/01/28 12:52:36;;;;;;;14.70;14.20;;;14.70;99.90;;;;;;5050550;28;20510;-72
2024/01/28 12:55:04;;;;;;;14.50;14.00;;;15.20;99.90;;;;;;5051718;28;20480;-72
2024/01/28 12:57:31;;;;;;;14.90;14.40;;;14.90;99.90;;;;;;5046527;28;20458;-72